Minerva Atlantica — ZCPR7 — position and weather

sailwx.info

Track history (hours):
 
Tides and Currents Weather Stations Pressure Air Temp Water Temp Dewpoint Dewpoint Depression Visibility Wind Speed Wind Dir Waves Ship Positions

Minerva Atlantica

Last reported at 2017-Jun-28 04:55 UTC. Time now 2017-Jun-28 05:07 UTC.
Position N 53°58' W 005°01'.

Length 250 m; draft 8.2 m.

Type: Ship (hazmat cat A). MMSI: 319161000.

Date/timePositionNaut miles runAvg speedWind from/ knotsBaromVisibWave heightAir tempDewpointWater temp
2017-Jun-28 04:55N 53°58' W 005°01'4014.3
2017-Jun-28 02:05N 53°38' W 004°01'113.5
2017-Jun-28 02:00N 53°38' W 003°60'713.3
2017-Jun-28 01:30N 53°35' W 003°50'612.2
2017-Jun-28 01:00N 53°34' W 003°39'612.4
2017-Jun-28 00:30N 53°33' W 003°29'612.0
2017-Jun-28 00:00N 53°32' W 003°19'5 9.6
2017-Jun-27 23:30N 53°32' W 003°11'4 8.2
2017-Jun-27 23:00N 53°30' W 003°05'2 4.8
2017-Jun-27 22:30N 53°28' W 003°03'4 8.5
2017-Jun-27 22:00N 53°24' W 003°00'1 1.7
2017-Jun-27 21:29N 53°23' W 003°00'0 0.0
2017-Jun-27 20:56N 53°23' W 003°00'0 0.0
2017-Jun-27 20:23N 53°23' W 003°00'0 0.0
2017-Jun-27 19:59N 53°23' W 003°00'0 0.0
2017-Jun-27 19:29N 53°23' W 003°00'0 0.0
2017-Jun-27 18:59N 53°23' W 003°00'0 0.0
2017-Jun-27 18:29N 53°23' W 003°00'0 0.0
2017-Jun-27 17:59N 53°23' W 003°00'0 0.0
2017-Jun-27 17:26N 53°23' W 003°00'0 0.0
2017-Jun-27 16:59N 53°23' W 003°00'0 0.0
2017-Jun-27 16:29N 53°23' W 003°00'0 0.0
2017-Jun-27 15:59N 53°23' W 003°00'0 0.0
2017-Jun-27 15:29N 53°23' W 003°00'0 0.0
2017-Jun-27 14:59N 53°23' W 003°00'0 0.0
2017-Jun-27 13:59N 53°23' W 003°00'0 0.0
2017-Jun-27 13:20N 53°23' W 003°00'0 0.0
2017-Jun-27 12:59N 53°23' W 003°00'0 0.0
2017-Jun-27 12:26N 53°23' W 003°00'0 0.0
2017-Jun-27 11:59N 53°23' W 003°00'0 0.0
2017-Jun-27 11:29N 53°23' W 003°00'0 0.0
2017-Jun-27 10:59N 53°23' W 003°00'0 0.0
2017-Jun-27 10:29N 53°23' W 003°00'0 0.0
2017-Jun-27 09:56N 53°23' W 003°00'0 0.0
2017-Jun-27 09:26N 53°23' W 003°00'0 0.0
2017-Jun-27 08:59N 53°23' W 003°00'0 0.0
2017-Jun-27 08:23N 53°23' W 003°00'0 0.0
2017-Jun-27 07:59N 53°23' W 003°00'0 0.0
2017-Jun-27 07:29N 53°23' W 003°00'0 0.0
2017-Jun-27 06:59N 53°23' W 003°00'0 0.0
2017-Jun-27 06:29N 53°23' W 003°00'0 0.0
2017-Jun-27 05:59N 53°23' W 003°00'0 0.0
2017-Jun-27 05:29N 53°23' W 003°00'0 0.0
2017-Jun-27 04:56N 53°23' W 003°00'0 0.0
2017-Jun-27 04:29N 53°23' W 003°00'0 0.0
2017-Jun-27 03:56N 53°23' W 003°00'0 0.0
2017-Jun-27 03:29N 53°23' W 003°00'0 0.0
2017-Jun-27 02:59N 53°23' W 003°00'0 0.0
2017-Jun-27 02:29N 53°23' W 003°00'0 0.0
2017-Jun-27 01:59N 53°23' W 003°00'0 0.0
2017-Jun-27 01:29N 53°23' W 003°00'0 0.0
2017-Jun-27 00:59N 53°23' W 003°00'0 0.0
2017-Jun-27 00:29N 53°23' W 003°00'0 0.0
2017-Jun-26 23:59N 53°23' W 003°00'0 0.0
2017-Jun-26 23:29N 53°23' W 003°00'0 0.0
2017-Jun-26 22:56N 53°23' W 003°00'0 0.0
2017-Jun-26 22:20N 53°23' W 003°00'0 0.0
2017-Jun-26 21:59N 53°23' W 003°00'0 0.0
2017-Jun-26 21:29N 53°23' W 003°00'0 0.0
2017-Jun-26 20:59N 53°23' W 003°00'0 0.0
2017-Jun-26 20:29N 53°23' W 003°00'0 0.0
2017-Jun-26 19:59N 53°23' W 003°00'0 0.0
2017-Jun-26 19:26N 53°23' W 003°00'0 0.0
2017-Jun-26 18:56N 53°23' W 003°00'0 0.0
2017-Jun-26 18:29N 53°23' W 003°00'0 0.0
2017-Jun-26 17:59N 53°23' W 003°00'0 0.0
2017-Jun-26 17:29N 53°23' W 003°00'0 0.0
2017-Jun-26 16:59N 53°23' W 003°00'0 0.0
2017-Jun-26 16:29N 53°23' W 003°00'0 0.0
2017-Jun-26 15:59N 53°23' W 003°00'0 0.0
2017-Jun-26 15:29N 53°23' W 003°00'0 0.0
2017-Jun-26 14:59N 53°23' W 003°00'0 0.0
2017-Jun-26 13:59N 53°23' W 003°00'0 0.0
2017-Jun-26 13:29N 53°23' W 003°00'0 0.0
2017-Jun-26 12:59N 53°23' W 003°00'0 0.7
2017-Jun-26 12:30N 53°23' W 003°00'3 5.1
2017-Jun-26 12:00N 53°26' W 003°01'4 8.8
2017-Jun-26 11:30N 53°29' W 003°05'4 8.5
2017-Jun-26 11:00N 53°32' W 003°11'5 9.9
2017-Jun-26 10:30N 53°31' W 003°20'510.7
2017-Jun-26 10:00N 53°32' W 003°29'511.0
2017-Jun-26 09:30N 53°31' W 003°38'611.3
2017-Jun-26 09:00N 53°30' W 003°47'611.4
2017-Jun-26 08:30N 53°29' W 003°57'611.9
2017-Jun-26 08:00N 53°28' W 004°07'5 2.1
2017-Jun-26 05:47N 53°24' W 004°10'0 0.0
2017-Jun-26 02:10N 53°24' W 004°10'0 0.1
2017-Jun-26 01:58N 53°24' W 004°10'0 0.0
2017-Jun-26 01:16N 53°24' W 004°10'0 0.1
2017-Jun-26 00:58N 53°24' W 004°10'1 0.1
2017-Jun-25 21:00N 53°25' W 004°11'4 7.5
2017-Jun-25 20:28N 53°27' W 004°16'12911.0
2017-Jun-25 08:46N 51°33' W 005°54'5213.4
2017-Jun-25 04:54N 50°43' W 006°18'3213.7
2017-Jun-25 02:32N 50°12' W 006°32'113.6
2017-Jun-25 02:28N 50°11' W 006°33'613.6
2017-Jun-25 02:00N 50°05' W 006°36'913.4
2017-Jun-25 01:18N 49°56' W 006°40'613.0
2017-Jun-25 00:50N 49°50' W 006°42'412.6
2017-Jun-25 00:30N 49°46' W 006°44'3011.7
2017-Jun-24 21:56N 49°17' W 006°59'1711.2
2017-Jun-24 20:26N 49°02' W 007°07'59212.2
2017-Jun-22 20:05N 39°23' W 009°57'112.4
2017-Jun-22 20:00N 39°22' W 009°57'612.4
2017-Jun-22 19:30N 39°16' W 009°57'612.4
2017-Jun-22 19:00N 39°09' W 009°57'612.2
2017-Jun-22 18:30N 39°03' W 009°57'612.0
2017-Jun-22 18:00N 38°57' W 009°57'612.2
2017-Jun-22 17:30N 38°51' W 009°57'612.0
2017-Jun-22 17:00N 38°45' W 009°57'612.0
2017-Jun-22 16:30N 38°39' W 009°56'612.2
2017-Jun-22 16:00N 38°33' W 009°54'612.2
2017-Jun-22 15:30N 38°27' W 009°53'612.2
2017-Jun-22 15:00N 38°21' W 009°51'1211.9
2017-Jun-22 14:00N 38°10' W 009°48'612.0
2017-Jun-22 13:30N 38°04' W 009°46'612.0
2017-Jun-22 13:00N 37°58' W 009°45'612.0
2017-Jun-22 12:30N 37°52' W 009°43'611.8
2017-Jun-22 12:00N 37°46' W 009°42'611.9
2017-Jun-22 11:30N 37°40' W 009°40'612.2
2017-Jun-22 11:00N 37°35' W 009°38'612.3
2017-Jun-22 10:30N 37°29' W 009°36'612.4
2017-Jun-22 10:00N 37°23' W 009°34'612.5
2017-Jun-22 09:30N 37°17' W 009°32'712.2
2017-Jun-22 08:58N 37°10' W 009°30'612.1
2017-Jun-22 08:30N 37°05' W 009°29'612.2
2017-Jun-22 08:00N 36°59' W 009°27'612.3
2017-Jun-22 07:30N 36°53' W 009°25'611.9
2017-Jun-22 07:00N 36°48' W 009°21'612.3
2017-Jun-22 06:30N 36°43' W 009°16'611.8
2017-Jun-22 05:58N 36°40' W 009°09'612.2
2017-Jun-22 05:29N 36°39' W 009°02'612.2
2017-Jun-22 04:59N 36°37' W 008°55'612.2
2017-Jun-22 04:30N 36°36' W 008°48'612.1
2017-Jun-22 03:58N 36°34' W 008°40'612.1
2017-Jun-22 03:30N 36°32' W 008°33'812.0
2017-Jun-22 02:48N 36°30' W 008°23'412.2
2017-Jun-22 02:28N 36°29' W 008°18'612.1
2017-Jun-22 02:00N 36°28' W 008°11'611.8
2017-Jun-22 01:30N 36°26' W 008°04'612.0
2017-Jun-22 00:59N 36°24' W 007°57'612.1
2017-Jun-22 00:30N 36°22' W 007°50'612.1
2017-Jun-22 00:00N 36°20' W 007°43'712.0
2017-Jun-21 23:24N 36°18' W 007°34'512.3
2017-Jun-21 23:00N 36°16' W 007°29'712.7
2017-Jun-21 22:27N 36°13' W 007°21'612.8
2017-Jun-21 22:00N 36°11' W 007°14'3112.6
2017-Jun-21 19:35N 36°01' W 006°38'312.9
2017-Jun-21 19:22N 35°60' W 006°35'4811.6
2017-Jun-21 15:14N 35°58' W 005°36'2 9.6
2017-Jun-21 15:00N 35°58' W 005°34'5 9.7
2017-Jun-21 14:30N 35°60' W 005°28'1111.3
2017-Jun-21 13:30N 36°02' W 005°14'13312.3
2017-Jun-21 02:44N 36°07' W 002°30'512.4
2017-Jun-21 02:19N 36°07' W 002°23'412.2
2017-Jun-21 02:00N 36°07' W 002°19'712.0
2017-Jun-21 01:25N 36°07' W 002°10'1011.7
2017-Jun-21 00:35N 36°07' W 001°58'611.7
2017-Jun-21 00:02N 36°08' W 001°50'011.5
2017-Jun-21 00:00N 36°08' W 001°50'911.8
2017-Jun-20 23:14N 36°08' W 001°38'312.1
2017-Jun-20 23:00N 36°08' W 001°35'2512.5
2017-Jun-20 20:58N 36°09' W 001°03'812.6
2017-Jun-20 20:21N 36°09' W 000°54'512.4
2017-Jun-20 19:57N 36°10' W 000°48'512.3
2017-Jun-20 19:30N 36°10' W 000°41'812.2
2017-Jun-20 18:51N 36°10' W 000°31'412.6
2017-Jun-20 18:30N 36°08' W 000°26'612.6
2017-Jun-20 18:00N 36°05' W 000°19'611.4
2017-Jun-20 17:30N 36°01' W 000°15'612.6
2017-Jun-20 17:00N 35°54' W 000°15'4 8.1
2017-Jun-20 16:30N 35°51' W 000°17'1 0.0
2017-Jun-19 12:53N 35°51' W 000°18'0 1.2
2017-Jun-19 12:30N 35°51' W 000°17'2 3.0
2017-Jun-19 12:00N 35°51' W 000°15'2 3.7
2017-Jun-19 11:30N 35°53' W 000°15'14 3.2
2017-Jun-19 07:14N 36°05' W 000°07'2 7.8
2017-Jun-19 07:00N 36°07' W 000°06'5 7.5
2017-Jun-19 06:21N 36°11' W 000°04'4 7.2
2017-Jun-19 05:48N 36°15' W 000°02'5 7.3
2017-Jun-19 05:07N 36°20' E 000°00'1 7.5
2017-Jun-19 04:59N 36°21' E 000°01'3 7.3
2017-Jun-19 04:30N 36°24' E 000°02'4 7.1
2017-Jun-19 03:59N 36°27' E 000°04'4 6.7
2017-Jun-19 03:28N 36°30' E 000°06'3 7.3
2017-Jun-19 03:00N 36°31' E 000°10'4 7.3
2017-Jun-19 02:31N 36°33' E 000°15'4 7.4
2017-Jun-19 02:01N 36°34' E 000°19'4 7.7
2017-Jun-19 01:30N 36°35' E 000°23'4 7.7
2017-Jun-19 01:00N 36°37' E 000°28'4 8.0
2017-Jun-19 00:31N 36°38' E 000°32'4 8.1
2017-Jun-19 00:00N 36°40' E 000°37'4 8.1
2017-Jun-18 23:30N 36°41' E 000°42'4 8.0
2017-Jun-18 23:00N 36°43' E 000°47'4 7.9
2017-Jun-18 22:30N 36°44' E 000°51'4 7.8
2017-Jun-18 22:00N 36°45' E 000°56'4 7.8
2017-Jun-18 21:30N 36°47' E 001°00'4 7.8
2017-Jun-18 21:01N 36°48' E 001°05'4 8.0
2017-Jun-18 20:31N 36°50' E 001°09'5 8.2
2017-Jun-18 19:53N 36°52' E 001°15'3 8.1
2017-Jun-18 19:30N 36°53' E 001°19'4 8.2
2017-Jun-18 19:00N 36°54' E 001°24'3 6.9
2017-Jun-18 18:30N 36°55' E 001°28'3 6.1
2017-Jun-18 18:00N 36°56' E 001°31'3 6.1
2017-Jun-18 17:28N 36°58' E 001°35'3 6.3
2017-Jun-18 17:00N 36°59' E 001°39'3 6.4
2017-Jun-18 16:31N 36°60' E 001°42'3 6.4
2017-Jun-18 16:01N 37°01' E 001°46'3 6.5
2017-Jun-18 15:30N 37°02' E 001°50'3 6.5
2017-Jun-18 15:00N 37°03' E 001°54'3 6.6
2017-Jun-18 14:30N 37°05' E 001°57'5 6.5
2017-Jun-18 13:42N 37°06' E 002°03'1 6.3
2017-Jun-18 13:30N 37°07' E 002°05'3 6.3
2017-Jun-18 12:58N 37°07' E 002°09'4 6.0
2017-Jun-18 12:14N 37°07' E 002°15'2 5.9
2017-Jun-18 11:54N 37°07' E 002°17'3 5.8
2017-Jun-18 11:27N 37°07' E 002°21'3 5.8
2017-Jun-18 10:57N 37°07' E 002°24'3 5.7
2017-Jun-18 10:30N 37°08' E 002°27'4 6.3
2017-Jun-18 09:54N 37°08' E 002°32'34 8.4
2017-Jun-18 05:55N 37°10' E 003°14'  
Track history (hours):
 
Tides and Currents Weather Stations Pressure Air Temp Water Temp Dewpoint Dewpoint Depression Visibility Wind Speed Wind Dir Waves Ship Positions

Minerva Atlantica

Last reported at 2017-Jun-28 04:55 UTC. Time now 2017-Jun-28 05:07 UTC.
Position N 53°58' W 005°01'.

Length 250 m; draft 8.2 m.

Type: Ship (hazmat cat A). MMSI: 319161000.

Date/timePositionNaut miles runAvg speedWind from/ knotsBaromVisibWave heightAir tempDewpointWater temp
2017-Jun-28 04:55N 53°58' W 005°01'4014.3
2017-Jun-28 02:05N 53°38' W 004°01'113.5
2017-Jun-28 02:00N 53°38' W 003°60'713.3
2017-Jun-28 01:30N 53°35' W 003°50'612.2
2017-Jun-28 01:00N 53°34' W 003°39'612.4
2017-Jun-28 00:30N 53°33' W 003°29'612.0
2017-Jun-28 00:00N 53°32' W 003°19'5 9.6
2017-Jun-27 23:30N 53°32' W 003°11'4 8.2
2017-Jun-27 23:00N 53°30' W 003°05'2 4.8
2017-Jun-27 22:30N 53°28' W 003°03'4 8.5
2017-Jun-27 22:00N 53°24' W 003°00'1 1.7
2017-Jun-27 21:29N 53°23' W 003°00'0 0.0
2017-Jun-27 20:56N 53°23' W 003°00'0 0.0
2017-Jun-27 20:23N 53°23' W 003°00'0 0.0
2017-Jun-27 19:59N 53°23' W 003°00'0 0.0
2017-Jun-27 19:29N 53°23' W 003°00'0 0.0
2017-Jun-27 18:59N 53°23' W 003°00'0 0.0
2017-Jun-27 18:29N 53°23' W 003°00'0 0.0
2017-Jun-27 17:59N 53°23' W 003°00'0 0.0
2017-Jun-27 17:26N 53°23' W 003°00'0 0.0
2017-Jun-27 16:59N 53°23' W 003°00'0 0.0
2017-Jun-27 16:29N 53°23' W 003°00'0 0.0
2017-Jun-27 15:59N 53°23' W 003°00'0 0.0
2017-Jun-27 15:29N 53°23' W 003°00'0 0.0
2017-Jun-27 14:59N 53°23' W 003°00'0 0.0
2017-Jun-27 13:59N 53°23' W 003°00'0 0.0
2017-Jun-27 13:20N 53°23' W 003°00'0 0.0
2017-Jun-27 12:59N 53°23' W 003°00'0 0.0
2017-Jun-27 12:26N 53°23' W 003°00'0 0.0
2017-Jun-27 11:59N 53°23' W 003°00'0 0.0
2017-Jun-27 11:29N 53°23' W 003°00'0 0.0
2017-Jun-27 10:59N 53°23' W 003°00'0 0.0
2017-Jun-27 10:29N 53°23' W 003°00'0 0.0
2017-Jun-27 09:56N 53°23' W 003°00'0 0.0
2017-Jun-27 09:26N 53°23' W 003°00'0 0.0
2017-Jun-27 08:59N 53°23' W 003°00'0 0.0
2017-Jun-27 08:23N 53°23' W 003°00'0 0.0
2017-Jun-27 07:59N 53°23' W 003°00'0 0.0
2017-Jun-27 07:29N 53°23' W 003°00'0 0.0
2017-Jun-27 06:59N 53°23' W 003°00'0 0.0
2017-Jun-27 06:29N 53°23' W 003°00'0 0.0
2017-Jun-27 05:59N 53°23' W 003°00'0 0.0
2017-Jun-27 05:29N 53°23' W 003°00'0 0.0
2017-Jun-27 04:56N 53°23' W 003°00'0 0.0
2017-Jun-27 04:29N 53°23' W 003°00'0 0.0
2017-Jun-27 03:56N 53°23' W 003°00'0 0.0
2017-Jun-27 03:29N 53°23' W 003°00'0 0.0
2017-Jun-27 02:59N 53°23' W 003°00'0 0.0
2017-Jun-27 02:29N 53°23' W 003°00'0 0.0
2017-Jun-27 01:59N 53°23' W 003°00'0 0.0
2017-Jun-27 01:29N 53°23' W 003°00'0 0.0
2017-Jun-27 00:59N 53°23' W 003°00'0 0.0
2017-Jun-27 00:29N 53°23' W 003°00'0 0.0
2017-Jun-26 23:59N 53°23' W 003°00'0 0.0
2017-Jun-26 23:29N 53°23' W 003°00'0 0.0
2017-Jun-26 22:56N 53°23' W 003°00'0 0.0
2017-Jun-26 22:20N 53°23' W 003°00'0 0.0
2017-Jun-26 21:59N 53°23' W 003°00'0 0.0
2017-Jun-26 21:29N 53°23' W 003°00'0 0.0
2017-Jun-26 20:59N 53°23' W 003°00'0 0.0
2017-Jun-26 20:29N 53°23' W 003°00'0 0.0
2017-Jun-26 19:59N 53°23' W 003°00'0 0.0
2017-Jun-26 19:26N 53°23' W 003°00'0 0.0
2017-Jun-26 18:56N 53°23' W 003°00'0 0.0
2017-Jun-26 18:29N 53°23' W 003°00'0 0.0
2017-Jun-26 17:59N 53°23' W 003°00'0 0.0
2017-Jun-26 17:29N 53°23' W 003°00'0 0.0
2017-Jun-26 16:59N 53°23' W 003°00'0 0.0
2017-Jun-26 16:29N 53°23' W 003°00'0 0.0
2017-Jun-26 15:59N 53°23' W 003°00'0 0.0
2017-Jun-26 15:29N 53°23' W 003°00'0 0.0
2017-Jun-26 14:59N 53°23' W 003°00'0 0.0
2017-Jun-26 13:59N 53°23' W 003°00'0 0.0
2017-Jun-26 13:29N 53°23' W 003°00'0 0.0
2017-Jun-26 12:59N 53°23' W 003°00'0 0.7
2017-Jun-26 12:30N 53°23' W 003°00'3 5.1
2017-Jun-26 12:00N 53°26' W 003°01'4 8.8
2017-Jun-26 11:30N 53°29' W 003°05'4 8.5
2017-Jun-26 11:00N 53°32' W 003°11'5 9.9
2017-Jun-26 10:30N 53°31' W 003°20'510.7
2017-Jun-26 10:00N 53°32' W 003°29'511.0
2017-Jun-26 09:30N 53°31' W 003°38'611.3
2017-Jun-26 09:00N 53°30' W 003°47'611.4
2017-Jun-26 08:30N 53°29' W 003°57'611.9
2017-Jun-26 08:00N 53°28' W 004°07'5 2.1
2017-Jun-26 05:47N 53°24' W 004°10'0 0.0
2017-Jun-26 02:10N 53°24' W 004°10'0 0.1
2017-Jun-26 01:58N 53°24' W 004°10'0 0.0
2017-Jun-26 01:16N 53°24' W 004°10'0 0.1
2017-Jun-26 00:58N 53°24' W 004°10'1 0.1
2017-Jun-25 21:00N 53°25' W 004°11'4 7.5
2017-Jun-25 20:28N 53°27' W 004°16'12911.0
2017-Jun-25 08:46N 51°33' W 005°54'5213.4
2017-Jun-25 04:54N 50°43' W 006°18'3213.7
2017-Jun-25 02:32N 50°12' W 006°32'113.6
2017-Jun-25 02:28N 50°11' W 006°33'613.6
2017-Jun-25 02:00N 50°05' W 006°36'913.4
2017-Jun-25 01:18N 49°56' W 006°40'613.0
2017-Jun-25 00:50N 49°50' W 006°42'412.6
2017-Jun-25 00:30N 49°46' W 006°44'3011.7
2017-Jun-24 21:56N 49°17' W 006°59'1711.2
2017-Jun-24 20:26N 49°02' W 007°07'59212.2
2017-Jun-22 20:05N 39°23' W 009°57'112.4
2017-Jun-22 20:00N 39°22' W 009°57'612.4
2017-Jun-22 19:30N 39°16' W 009°57'612.4
2017-Jun-22 19:00N 39°09' W 009°57'612.2
2017-Jun-22 18:30N 39°03' W 009°57'612.0
2017-Jun-22 18:00N 38°57' W 009°57'612.2
2017-Jun-22 17:30N 38°51' W 009°57'612.0
2017-Jun-22 17:00N 38°45' W 009°57'612.0
2017-Jun-22 16:30N 38°39' W 009°56'612.2
2017-Jun-22 16:00N 38°33' W 009°54'612.2
2017-Jun-22 15:30N 38°27' W 009°53'612.2
2017-Jun-22 15:00N 38°21' W 009°51'1211.9
2017-Jun-22 14:00N 38°10' W 009°48'612.0
2017-Jun-22 13:30N 38°04' W 009°46'612.0
2017-Jun-22 13:00N 37°58' W 009°45'612.0
2017-Jun-22 12:30N 37°52' W 009°43'611.8
2017-Jun-22 12:00N 37°46' W 009°42'611.9
2017-Jun-22 11:30N 37°40' W 009°40'612.2
2017-Jun-22 11:00N 37°35' W 009°38'612.3
2017-Jun-22 10:30N 37°29' W 009°36'612.4
2017-Jun-22 10:00N 37°23' W 009°34'612.5
2017-Jun-22 09:30N 37°17' W 009°32'712.2
2017-Jun-22 08:58N 37°10' W 009°30'612.1
2017-Jun-22 08:30N 37°05' W 009°29'612.2
2017-Jun-22 08:00N 36°59' W 009°27'612.3
2017-Jun-22 07:30N 36°53' W 009°25'611.9
2017-Jun-22 07:00N 36°48' W 009°21'612.3
2017-Jun-22 06:30N 36°43' W 009°16'611.8
2017-Jun-22 05:58N 36°40' W 009°09'612.2
2017-Jun-22 05:29N 36°39' W 009°02'612.2
2017-Jun-22 04:59N 36°37' W 008°55'612.2
2017-Jun-22 04:30N 36°36' W 008°48'612.1
2017-Jun-22 03:58N 36°34' W 008°40'612.1
2017-Jun-22 03:30N 36°32' W 008°33'812.0
2017-Jun-22 02:48N 36°30' W 008°23'412.2
2017-Jun-22 02:28N 36°29' W 008°18'612.1
2017-Jun-22 02:00N 36°28' W 008°11'611.8
2017-Jun-22 01:30N 36°26' W 008°04'612.0
2017-Jun-22 00:59N 36°24' W 007°57'612.1
2017-Jun-22 00:30N 36°22' W 007°50'612.1
2017-Jun-22 00:00N 36°20' W 007°43'712.0
2017-Jun-21 23:24N 36°18' W 007°34'512.3
2017-Jun-21 23:00N 36°16' W 007°29'712.7
2017-Jun-21 22:27N 36°13' W 007°21'612.8
2017-Jun-21 22:00N 36°11' W 007°14'3112.6
2017-Jun-21 19:35N 36°01' W 006°38'312.9
2017-Jun-21 19:22N 35°60' W 006°35'4811.6
2017-Jun-21 15:14N 35°58' W 005°36'2 9.6
2017-Jun-21 15:00N 35°58' W 005°34'5 9.7
2017-Jun-21 14:30N 35°60' W 005°28'1111.3
2017-Jun-21 13:30N 36°02' W 005°14'13312.3
2017-Jun-21 02:44N 36°07' W 002°30'512.4
2017-Jun-21 02:19N 36°07' W 002°23'412.2
2017-Jun-21 02:00N 36°07' W 002°19'712.0
2017-Jun-21 01:25N 36°07' W 002°10'1011.7
2017-Jun-21 00:35N 36°07' W 001°58'611.7
2017-Jun-21 00:02N 36°08' W 001°50'011.5
2017-Jun-21 00:00N 36°08' W 001°50'911.8
2017-Jun-20 23:14N 36°08' W 001°38'312.1
2017-Jun-20 23:00N 36°08' W 001°35'2512.5
2017-Jun-20 20:58N 36°09' W 001°03'812.6
2017-Jun-20 20:21N 36°09' W 000°54'512.4
2017-Jun-20 19:57N 36°10' W 000°48'512.3
2017-Jun-20 19:30N 36°10' W 000°41'812.2
2017-Jun-20 18:51N 36°10' W 000°31'412.6
2017-Jun-20 18:30N 36°08' W 000°26'612.6
2017-Jun-20 18:00N 36°05' W 000°19'611.4
2017-Jun-20 17:30N 36°01' W 000°15'612.6
2017-Jun-20 17:00N 35°54' W 000°15'4 8.1
2017-Jun-20 16:30N 35°51' W 000°17'1 0.0
2017-Jun-19 12:53N 35°51' W 000°18'0 1.2
2017-Jun-19 12:30N 35°51' W 000°17'2 3.0
2017-Jun-19 12:00N 35°51' W 000°15'2 3.7
2017-Jun-19 11:30N 35°53' W 000°15'14 3.2
2017-Jun-19 07:14N 36°05' W 000°07'2 7.8
2017-Jun-19 07:00N 36°07' W 000°06'5 7.5
2017-Jun-19 06:21N 36°11' W 000°04'4 7.2
2017-Jun-19 05:48N 36°15' W 000°02'5 7.3
2017-Jun-19 05:07N 36°20' E 000°00'1 7.5
2017-Jun-19 04:59N 36°21' E 000°01'3 7.3
2017-Jun-19 04:30N 36°24' E 000°02'4 7.1
2017-Jun-19 03:59N 36°27' E 000°04'4 6.7
2017-Jun-19 03:28N 36°30' E 000°06'3 7.3
2017-Jun-19 03:00N 36°31' E 000°10'4 7.3
2017-Jun-19 02:31N 36°33' E 000°15'4 7.4
2017-Jun-19 02:01N 36°34' E 000°19'4 7.7
2017-Jun-19 01:30N 36°35' E 000°23'4 7.7
2017-Jun-19 01:00N 36°37' E 000°28'4 8.0
2017-Jun-19 00:31N 36°38' E 000°32'4 8.1
2017-Jun-19 00:00N 36°40' E 000°37'4 8.1
2017-Jun-18 23:30N 36°41' E 000°42'4 8.0
2017-Jun-18 23:00N 36°43' E 000°47'4 7.9
2017-Jun-18 22:30N 36°44' E 000°51'4 7.8
2017-Jun-18 22:00N 36°45' E 000°56'4 7.8
2017-Jun-18 21:30N 36°47' E 001°00'4 7.8
2017-Jun-18 21:01N 36°48' E 001°05'4 8.0
2017-Jun-18 20:31N 36°50' E 001°09'5 8.2
2017-Jun-18 19:53N 36°52' E 001°15'3 8.1
2017-Jun-18 19:30N 36°53' E 001°19'4 8.2
2017-Jun-18 19:00N 36°54' E 001°24'3 6.9
2017-Jun-18 18:30N 36°55' E 001°28'3 6.1
2017-Jun-18 18:00N 36°56' E 001°31'3 6.1
2017-Jun-18 17:28N 36°58' E 001°35'3 6.3
2017-Jun-18 17:00N 36°59' E 001°39'3 6.4
2017-Jun-18 16:31N 36°60' E 001°42'3 6.4
2017-Jun-18 16:01N 37°01' E 001°46'3 6.5
2017-Jun-18 15:30N 37°02' E 001°50'3 6.5
2017-Jun-18 15:00N 37°03' E 001°54'3 6.6
2017-Jun-18 14:30N 37°05' E 001°57'5 6.5
2017-Jun-18 13:42N 37°06' E 002°03'1 6.3
2017-Jun-18 13:30N 37°07' E 002°05'3 6.3
2017-Jun-18 12:58N 37°07' E 002°09'4 6.0
2017-Jun-18 12:14N 37°07' E 002°15'2 5.9
2017-Jun-18 11:54N 37°07' E 002°17'3 5.8
2017-Jun-18 11:27N 37°07' E 002°21'3 5.8
2017-Jun-18 10:57N 37°07' E 002°24'3 5.7
2017-Jun-18 10:30N 37°08' E 002°27'4 6.3
2017-Jun-18 09:54N 37°08' E 002°32'34 8.4
2017-Jun-18 05:55N 37°10' E 003°14'  

Dump ship's entire track history